createdAt,value
2023-04-01T00:00:19.034Z,350.00
2023-04-01T00:01:08.871Z,352.00
2023-04-01T00:02:08.933Z,356.00
2023-04-01T00:03:08.909Z,356.00
2023-04-01T00:04:08.878Z,354.00
2023-04-01T00:05:08.822Z,354.00
2023-04-01T00:06:08.788Z,353.00
2023-04-01T00:07:08.841Z,352.00
2023-04-01T00:08:08.788Z,353.00
2023-04-01T00:09:08.761Z,354.00
2023-04-01T00:10:08.775Z,363.00
2023-04-01T00:11:08.749Z,358.00
2023-04-01T00:12:08.739Z,355.00
2023-04-01T00:13:08.800Z,358.00
2023-04-01T00:14:08.704Z,357.00
2023-04-01T00:15:08.673Z,359.00
2023-04-01T00:16:19.968Z,361.00
2023-04-01T00:17:08.746Z,360.00
2023-04-01T00:18:08.681Z,353.00
2023-04-01T00:19:08.644Z,352.00
2023-04-01T00:20:08.616Z,340.00
2023-04-01T00:21:08.636Z,362.00
2023-04-01T00:22:08.610Z,357.00
2023-04-01T00:23:08.597Z,361.00
2023-04-01T00:24:08.563Z,366.00
2023-04-01T00:25:08.555Z,359.00
2023-04-01T00:26:08.533Z,362.00
2023-04-01T00:27:08.538Z,361.00
2023-04-01T00:28:08.533Z,360.00
2023-04-01T00:29:08.572Z,363.00
2023-04-01T00:30:08.492Z,360.00
2023-04-01T00:31:08.567Z,351.00
2023-04-01T00:32:08.466Z,359.00
2023-04-01T00:33:08.491Z,357.00
2023-04-01T00:34:08.456Z,359.00
2023-04-01T00:35:08.427Z,352.00
2023-04-01T00:36:08.487Z,353.00
2023-04-01T00:37:08.395Z,352.00
2023-04-01T00:38:08.441Z,349.00
2023-04-01T00:39:08.397Z,347.00
2023-04-01T00:40:08.385Z,354.00
2023-04-01T00:41:08.378Z,354.00
2023-04-01T00:42:08.346Z,351.00
2023-04-01T00:43:08.334Z,346.00
2023-04-01T00:44:08.350Z,349.00
2023-04-01T00:45:08.352Z,349.00
2023-04-01T00:46:08.283Z,354.00
2023-04-01T00:47:08.356Z,354.00
2023-04-01T00:48:08.307Z,349.00
2023-04-01T00:49:08.236Z,354.00
2023-04-01T00:50:08.273Z,357.00
2023-04-01T00:51:08.232Z,356.00
2023-04-01T00:52:08.206Z,352.00
2023-04-01T00:53:08.201Z,343.00
2023-04-01T00:54:08.189Z,339.00
2023-04-01T00:55:08.181Z,344.00
2023-04-01T00:56:08.180Z,341.00
2023-04-01T00:57:08.210Z,350.00
2023-04-01T00:58:08.124Z,352.00
2023-04-01T00:59:08.140Z,354.00
2023-04-01T01:00:08.108Z,351.00
2023-04-01T01:01:08.150Z,351.00
2023-04-01T01:02:08.103Z,358.00
2023-04-01T01:03:08.141Z,342.00
2023-04-01T01:04:08.057Z,340.00
2023-04-01T01:05:08.023Z,333.00
2023-04-01T01:06:08.054Z,333.00
2023-04-01T01:07:08.022Z,325.00
2023-04-01T01:08:08.047Z,324.00
2023-04-01T01:09:07.996Z,330.00
2023-04-01T01:10:07.955Z,334.00
2023-04-01T01:11:07.966Z,343.00
2023-04-01T01:12:07.916Z,326.00
2023-04-01T01:13:07.931Z,340.00
2023-04-01T01:14:07.876Z,350.00
2023-04-01T01:15:07.912Z,340.00
2023-04-01T01:16:07.917Z,346.00
2023-04-01T01:17:07.853Z,354.00
2023-04-01T01:18:07.892Z,358.00
2023-04-01T01:19:07.861Z,352.00
2023-04-01T01:20:12.782Z,347.00
2023-04-01T01:21:07.850Z,357.00
2023-04-01T01:22:07.784Z,352.00
2023-04-01T01:23:07.803Z,351.00
2023-04-01T01:24:07.772Z,354.00
2023-04-01T01:25:07.776Z,358.00
2023-04-01T01:26:07.724Z,359.00
2023-04-01T01:27:07.770Z,353.00
2023-04-01T01:28:07.704Z,342.00
2023-04-01T01:29:07.744Z,343.00
2023-04-01T01:30:07.678Z,333.00
2023-04-01T01:31:07.681Z,333.00
2023-04-01T01:32:07.633Z,336.00
2023-04-01T01:33:07.928Z,336.00
2023-04-01T01:34:07.638Z,332.00
2023-04-01T01:35:07.622Z,330.00
2023-04-01T01:36:07.700Z,335.00
2023-04-01T01:37:07.608Z,324.00
2023-04-01T01:38:07.604Z,323.00
2023-04-01T01:39:07.627Z,328.00
2023-04-01T01:40:07.554Z,325.00
2023-04-01T01:41:07.533Z,331.00
2023-04-01T01:42:07.538Z,334.00
2023-04-01T01:43:07.504Z,334.00
2023-04-01T01:44:07.502Z,335.00
2023-04-01T01:45:07.470Z,331.00
2023-04-01T01:46:07.532Z,342.00
2023-04-01T01:47:07.457Z,339.00
2023-04-01T01:48:07.481Z,342.00
2023-04-01T01:49:07.467Z,355.00
2023-04-01T01:50:07.424Z,355.00
2023-04-01T01:51:07.397Z,361.00
2023-04-01T01:52:07.417Z,363.00
2023-04-01T01:53:07.398Z,353.00
2023-04-01T01:54:07.369Z,353.00
2023-04-01T01:55:07.379Z,348.00
2023-04-01T01:56:07.349Z,337.00
2023-04-01T01:57:07.350Z,342.00
2023-04-01T01:58:07.346Z,339.00
2023-04-01T01:59:07.278Z,335.00
2023-04-01T02:00:07.306Z,335.00
2023-04-01T02:01:07.336Z,331.00
2023-04-01T02:02:07.261Z,322.00
2023-04-01T02:03:07.326Z,313.00
2023-04-01T02:04:07.293Z,317.00
2023-04-01T02:05:07.215Z,321.00
2023-04-01T02:06:07.202Z,318.00
2023-04-01T02:07:07.233Z,318.00
2023-04-01T02:08:07.163Z,322.00
2023-04-01T02:09:07.175Z,323.00
2023-04-01T02:10:07.166Z,324.00
2023-04-01T02:11:07.169Z,320.00
2023-04-01T02:12:07.136Z,315.00
2023-04-01T02:13:07.129Z,311.00
2023-04-01T02:14:07.111Z,316.00
2023-04-01T02:15:07.070Z,322.00
2023-04-01T02:16:07.112Z,330.00
2023-04-01T02:17:07.104Z,344.00
2023-04-01T02:18:07.062Z,349.00
2023-04-01T02:19:07.041Z,344.00
2023-04-01T02:20:06.991Z,351.00
2023-04-01T02:21:07.034Z,353.00
2023-04-01T02:22:06.976Z,343.00
2023-04-01T02:23:06.982Z,340.00
2023-04-01T02:24:06.955Z,338.00
2023-04-01T02:25:06.941Z,335.00
2023-04-01T02:26:06.942Z,326.00
2023-04-01T02:27:06.940Z,322.00
2023-04-01T02:28:06.902Z,321.00
2023-04-01T02:29:06.944Z,310.00
2023-04-01T02:30:06.883Z,306.00
2023-04-01T02:31:07.021Z,313.00
2023-04-01T02:32:06.863Z,322.00
2023-04-01T02:33:06.987Z,320.00
2023-04-01T02:34:06.829Z,326.00
2023-04-01T02:35:06.831Z,331.00
2023-04-01T02:36:06.839Z,331.00
2023-04-01T02:37:06.764Z,331.00
2023-04-01T02:38:06.808Z,329.00
2023-04-01T02:39:06.760Z,332.00
2023-04-01T02:40:06.740Z,333.00
2023-04-01T02:41:06.729Z,342.00
2023-04-01T02:42:06.711Z,351.00
2023-04-01T02:43:06.726Z,357.00
2023-04-01T02:44:06.685Z,361.00
2023-04-01T02:45:06.717Z,351.00
2023-04-01T02:46:06.640Z,336.00
2023-04-01T02:47:06.716Z,333.00
2023-04-01T02:48:06.679Z,323.00
2023-04-01T02:49:06.643Z,340.00
2023-04-01T02:50:06.619Z,348.00
2023-04-01T02:51:06.609Z,353.00
2023-04-01T02:52:06.576Z,357.00
2023-04-01T02:53:06.584Z,358.00
2023-04-01T02:54:06.563Z,358.00
2023-04-01T02:55:06.543Z,357.00
2023-04-01T02:56:06.528Z,357.00
2023-04-01T02:57:06.601Z,359.00
2023-04-01T02:58:06.507Z,359.00
2023-04-01T02:59:06.507Z,356.00
2023-04-01T03:00:06.558Z,347.00
2023-04-01T03:01:06.491Z,343.00
2023-04-01T03:02:06.509Z,334.00
2023-04-01T03:03:06.541Z,331.00
2023-04-01T03:04:06.462Z,327.00
2023-04-01T03:05:06.424Z,323.00
2023-04-01T03:06:06.439Z,322.00
2023-04-01T03:07:06.399Z,321.00
2023-04-01T03:08:06.377Z,322.00
2023-04-01T03:09:06.357Z,327.00
2023-04-01T03:10:06.364Z,333.00
2023-04-01T03:11:06.314Z,347.00
2023-04-01T03:12:06.324Z,352.00
2023-04-01T03:13:06.288Z,369.00
2023-04-01T03:14:06.324Z,369.00
2023-04-01T03:15:10.499Z,360.00
2023-04-01T03:16:06.291Z,365.00
2023-04-01T03:17:06.252Z,361.00
2023-04-01T03:18:06.285Z,363.00
2023-04-01T03:19:06.228Z,361.00
2023-04-01T03:20:06.248Z,364.00
2023-04-01T03:21:06.215Z,361.00
2023-04-01T03:22:06.181Z,361.00
2023-04-01T03:23:06.172Z,359.00
2023-04-01T03:24:06.160Z,358.00
2023-04-01T03:25:06.146Z,355.00
2023-04-01T03:26:06.131Z,358.00
2023-04-01T03:27:06.129Z,367.00
2023-04-01T03:28:06.113Z,368.00
2023-04-01T03:29:06.070Z,360.00
2023-04-01T03:30:06.225Z,358.00
2023-04-01T03:31:06.085Z,358.00
2023-04-01T03:32:06.045Z,359.00
2023-04-01T03:33:06.107Z,352.00
2023-04-01T03:34:06.058Z,349.00
2023-04-01T03:35:06.000Z,347.00
2023-04-01T03:36:06.012Z,337.00
2023-04-01T03:37:05.968Z,342.00
2023-04-01T03:38:06.014Z,346.00
2023-04-01T03:39:06.012Z,343.00
2023-04-01T03:40:05.930Z,342.00
2023-04-01T03:41:05.930Z,342.00
2023-04-01T03:42:05.917Z,348.00
2023-04-01T03:43:05.960Z,350.00
2023-04-01T03:44:05.889Z,349.00
2023-04-01T03:45:05.858Z,351.00
2023-04-01T03:46:05.895Z,347.00
2023-04-01T03:47:05.848Z,346.00
2023-04-01T03:48:05.853Z,338.00
2023-04-01T03:49:05.809Z,339.00
2023-04-01T03:50:05.800Z,336.00
2023-04-01T03:51:05.791Z,333.00
2023-04-01T03:52:05.809Z,323.00
2023-04-01T03:53:05.815Z,326.00
2023-04-01T03:54:05.776Z,323.00
2023-04-01T03:55:05.779Z,323.00
2023-04-01T03:56:05.796Z,324.00
2023-04-01T03:57:05.893Z,326.00
2023-04-01T03:58:05.773Z,328.00
2023-04-01T03:59:05.714Z,332.00
2023-04-01T04:00:05.702Z,336.00
2023-04-01T04:01:05.719Z,341.00
2023-04-01T04:02:05.662Z,348.00
2023-04-01T04:03:05.773Z,347.00
2023-04-01T04:04:05.657Z,343.00
2023-04-01T04:05:05.608Z,336.00
2023-04-01T04:06:05.615Z,338.00
2023-04-01T04:07:05.629Z,334.00
2023-04-01T04:08:05.587Z,334.00
2023-04-01T04:09:05.643Z,331.00
2023-04-01T04:10:05.573Z,330.00
2023-04-01T04:11:05.575Z,327.00
2023-04-01T04:12:05.519Z,329.00
2023-04-01T04:13:05.544Z,329.00
2023-04-01T04:14:05.569Z,327.00
2023-04-01T04:15:05.561Z,333.00
2023-04-01T04:16:05.455Z,330.00
2023-04-01T04:17:05.471Z,334.00
2023-04-01T04:18:05.479Z,356.00
2023-04-01T04:19:05.418Z,359.00
2023-04-01T04:20:05.540Z,363.00
2023-04-01T04:21:05.396Z,365.00
2023-04-01T04:22:05.386Z,365.00
2023-04-01T04:23:05.354Z,357.00
2023-04-01T04:24:05.388Z,356.00
2023-04-01T04:25:05.330Z,350.00
2023-04-01T04:26:05.361Z,350.00
2023-04-01T04:27:05.393Z,346.00
2023-04-01T04:28:05.372Z,330.00
2023-04-01T04:29:05.486Z,326.00
2023-04-01T04:30:05.358Z,323.00
2023-04-01T04:31:05.409Z,316.00
2023-04-01T04:32:05.395Z,316.00
2023-04-01T04:33:05.497Z,313.00
2023-04-01T04:34:05.373Z,320.00
2023-04-01T04:35:05.371Z,317.00
2023-04-01T04:36:05.491Z,322.00
2023-04-01T04:37:05.421Z,329.00
2023-04-01T04:38:05.257Z,332.00
2023-04-01T04:39:06.191Z,336.00
2023-04-01T04:40:05.233Z,348.00
2023-04-01T04:41:05.136Z,349.00
2023-04-01T04:42:05.142Z,353.00
2023-04-01T04:43:11.741Z,358.00
2023-04-01T04:44:05.106Z,356.00
2023-04-01T04:45:05.129Z,353.00
2023-04-01T04:46:05.090Z,346.00
2023-04-01T04:47:05.087Z,335.00
2023-04-01T04:48:05.046Z,333.00
2023-04-01T04:49:05.050Z,331.00
2023-04-01T04:50:05.037Z,328.00
2023-04-01T04:51:05.222Z,325.00
2023-04-01T04:52:05.130Z,325.00
2023-04-01T04:53:05.105Z,324.00
2023-04-01T04:54:05.017Z,326.00
2023-04-01T04:55:04.964Z,333.00
2023-04-01T04:56:05.024Z,331.00
2023-04-01T04:57:04.956Z,330.00
2023-04-01T04:58:04.894Z,329.00
2023-04-01T04:59:04.916Z,331.00
2023-04-01T05:00:04.915Z,326.00
2023-04-01T05:01:04.885Z,323.00
2023-04-01T05:02:04.898Z,324.00
2023-04-01T05:03:04.962Z,328.00
2023-04-01T05:04:04.837Z,335.00
2023-04-01T05:05:04.789Z,349.00
2023-04-01T05:06:04.795Z,357.00
2023-04-01T05:07:04.935Z,367.00
2023-04-01T05:08:04.864Z,366.00
2023-04-01T05:09:04.875Z,357.00
2023-04-01T05:10:04.728Z,349.00
2023-04-01T05:11:04.956Z,345.00
2023-04-01T05:12:04.826Z,346.00
2023-04-01T05:13:06.790Z,361.00
2023-04-01T05:14:04.700Z,372.00
2023-04-01T05:15:04.686Z,367.00
2023-04-01T05:16:04.656Z,358.00
2023-04-01T05:17:04.741Z,353.00
2023-04-01T05:18:04.682Z,350.00
2023-04-01T05:19:10.602Z,353.00
2023-04-01T05:20:04.593Z,352.00
2023-04-01T05:21:04.574Z,346.00
2023-04-01T05:22:04.573Z,344.00
2023-04-01T05:23:04.574Z,339.00
2023-04-01T05:24:04.569Z,314.00
2023-04-01T05:25:04.554Z,307.00
2023-04-01T05:26:04.529Z,307.00
2023-04-01T05:27:05.216Z,309.00
2023-04-01T05:28:04.503Z,314.00
2023-04-01T05:29:04.521Z,314.00
2023-04-01T05:30:04.580Z,319.00
2023-04-01T05:31:04.499Z,325.00
2023-04-01T05:32:04.519Z,335.00
2023-04-01T05:33:04.565Z,343.00
2023-04-01T05:34:04.479Z,359.00
2023-04-01T05:35:04.413Z,365.00
2023-04-01T05:36:04.487Z,367.00
2023-04-01T05:37:04.401Z,380.00
2023-04-01T05:38:04.383Z,376.00
2023-04-01T05:39:04.391Z,371.00
2023-04-01T05:40:04.369Z,372.00
2023-04-01T05:41:04.330Z,366.00
2023-04-01T05:42:05.605Z,357.00
2023-04-01T05:43:04.303Z,355.00
2023-04-01T05:44:04.309Z,348.00
2023-04-01T05:45:04.311Z,338.00
2023-04-01T05:46:04.303Z,336.00
2023-04-01T05:47:04.245Z,337.00
2023-04-01T05:48:04.305Z,348.00
2023-04-01T05:49:04.251Z,344.00
2023-04-01T05:50:04.248Z,350.00
2023-04-01T05:51:04.220Z,352.00
2023-04-01T05:52:04.222Z,356.00
2023-04-01T05:53:04.168Z,357.00
2023-04-01T05:54:04.170Z,351.00
2023-04-01T05:55:04.122Z,353.00
2023-04-01T05:56:08.857Z,352.00
2023-04-01T05:57:04.156Z,348.00
2023-04-01T05:58:04.119Z,352.00
2023-04-01T05:59:04.102Z,353.00
2023-04-01T06:00:04.056Z,353.00
2023-04-01T06:01:10.295Z,359.00
2023-04-01T06:02:04.043Z,356.00
2023-04-01T06:03:04.159Z,357.00
2023-04-01T06:04:05.148Z,368.00
2023-04-01T06:05:04.086Z,373.00
2023-04-01T06:06:04.018Z,384.00
2023-04-01T06:07:03.999Z,374.00
2023-04-01T06:08:04.004Z,371.00
2023-04-01T06:09:03.987Z,366.00
2023-04-01T06:10:03.935Z,357.00
2023-04-01T06:11:03.904Z,354.00
2023-04-01T06:12:03.914Z,355.00
2023-04-01T06:13:03.885Z,353.00
2023-04-01T06:14:04.300Z,353.00
2023-04-01T06:15:03.871Z,363.00
2023-04-01T06:16:03.900Z,368.00
2023-04-01T06:17:03.834Z,373.00
2023-04-01T06:18:03.901Z,372.00
2023-04-01T06:19:03.819Z,365.00
2023-04-01T06:20:03.821Z,368.00
2023-04-01T06:21:03.786Z,365.00
2023-04-01T06:22:03.786Z,362.00
2023-04-01T06:23:03.757Z,362.00
2023-04-01T06:24:03.754Z,361.00
2023-04-01T06:25:03.761Z,350.00
2023-04-01T06:26:03.768Z,348.00
2023-04-01T06:27:03.757Z,353.00
2023-04-01T06:28:03.948Z,350.00
2023-04-01T06:29:03.696Z,353.00
2023-04-01T06:30:03.730Z,350.00
2023-04-01T06:31:03.705Z,336.00
2023-04-01T06:32:10.382Z,329.00
2023-04-01T06:33:03.651Z,322.00
2023-04-01T06:34:03.663Z,328.00
2023-04-01T06:35:03.623Z,324.00
2023-04-01T06:36:03.758Z,324.00
2023-04-01T06:37:03.632Z,324.00
2023-04-01T06:38:03.574Z,322.00
2023-04-01T06:39:03.570Z,319.00
2023-04-01T06:40:03.586Z,320.00
2023-04-01T06:41:03.555Z,317.00
2023-04-01T06:42:03.786Z,318.00
2023-04-01T06:43:03.571Z,313.00
2023-04-01T06:44:03.506Z,311.00
2023-04-01T06:45:03.450Z,312.00
2023-04-01T06:46:03.453Z,311.00
2023-04-01T06:47:03.445Z,313.00
2023-04-01T06:48:03.551Z,311.00
2023-04-01T06:49:03.585Z,308.00
2023-04-01T06:50:03.454Z,308.00
2023-04-01T06:51:03.393Z,309.00
2023-04-01T06:52:03.384Z,311.00
2023-04-01T06:53:03.358Z,309.00
2023-04-01T06:54:03.372Z,306.00
2023-04-01T06:55:03.341Z,313.00
2023-04-01T06:56:03.332Z,316.00
2023-04-01T06:57:03.339Z,314.00
2023-04-01T06:58:03.313Z,310.00
2023-04-01T06:59:03.333Z,309.00
2023-04-01T07:00:03.281Z,310.00
2023-04-01T07:01:03.322Z,308.00
2023-04-01T07:02:03.249Z,308.00
2023-04-01T07:03:05.488Z,309.00
2023-04-01T07:04:03.256Z,308.00
2023-04-01T07:05:03.232Z,307.00
2023-04-01T07:06:03.177Z,306.00
2023-04-01T07:07:03.178Z,304.00
2023-04-01T07:08:03.177Z,300.00
2023-04-01T07:09:05.114Z,297.00
2023-04-01T07:10:03.153Z,298.00
2023-04-01T07:11:03.149Z,299.00
2023-04-01T07:12:03.115Z,303.00
2023-04-01T07:13:03.106Z,312.00
2023-04-01T07:14:03.078Z,294.00
2023-04-01T07:15:03.082Z,300.00
2023-04-01T07:16:03.038Z,304.00
2023-04-01T07:17:03.038Z,311.00
2023-04-01T07:18:03.078Z,336.00
2023-04-01T07:19:03.115Z,358.00
2023-04-01T07:20:03.032Z,346.00
2023-04-01T07:21:02.984Z,367.00
2023-04-01T07:22:03.131Z,377.00
2023-04-01T07:23:02.960Z,349.00
2023-04-01T07:24:02.982Z,347.00
2023-04-01T07:25:02.918Z,342.00
2023-04-01T07:26:02.978Z,342.00
2023-04-01T07:27:02.895Z,325.00
2023-04-01T07:28:02.875Z,314.00
2023-04-01T07:29:02.950Z,297.00
2023-04-01T07:30:02.905Z,291.00
2023-04-01T07:31:02.916Z,279.00
2023-04-01T07:32:02.858Z,248.00
2023-04-01T07:33:02.912Z,252.00
2023-04-01T07:34:02.816Z,256.00
2023-04-01T07:35:02.853Z,280.00
2023-04-01T07:36:02.789Z,300.00
2023-04-01T07:37:02.784Z,306.00
2023-04-01T07:38:02.769Z,347.00
2023-04-01T07:39:02.777Z,314.00
2023-04-01T07:40:02.760Z,316.00
2023-04-01T07:41:02.738Z,311.00
2023-04-01T07:42:02.697Z,319.00
2023-04-01T07:43:02.678Z,319.00
2023-04-01T07:44:02.710Z,320.00
2023-04-01T07:45:02.705Z,321.00
2023-04-01T07:46:02.693Z,325.00
2023-04-01T07:47:02.632Z,329.00
2023-04-01T07:48:02.716Z,330.00
2023-04-01T07:49:02.614Z,330.00
2023-04-01T07:50:02.580Z,332.00
2023-04-01T07:51:02.594Z,332.00
2023-04-01T07:52:02.551Z,332.00
2023-04-01T07:53:02.570Z,333.00
2023-04-01T07:54:02.532Z,333.00
2023-04-01T07:55:02.548Z,333.00
2023-04-01T07:56:02.503Z,336.00
2023-04-01T07:57:02.544Z,335.00
2023-04-01T07:58:02.482Z,335.00
2023-04-01T07:59:02.461Z,335.00
2023-04-01T08:00:02.465Z,335.00
2023-04-01T08:01:02.439Z,337.00
2023-04-01T08:02:02.443Z,335.00
2023-04-01T08:03:02.519Z,335.00
2023-04-01T08:04:02.516Z,337.00
2023-04-01T08:05:02.442Z,334.00
2023-04-01T08:06:02.444Z,335.00
2023-04-01T08:07:02.377Z,335.00
2023-04-01T08:08:02.338Z,334.00
2023-04-01T08:09:02.332Z,331.00
2023-04-01T08:10:02.330Z,330.00
2023-04-01T08:11:02.332Z,330.00
2023-04-01T08:12:02.296Z,324.00
2023-04-01T08:13:02.321Z,323.00
2023-04-01T08:14:02.263Z,321.00
2023-04-01T08:15:02.248Z,339.00
2023-04-01T08:16:02.272Z,310.00
2023-04-01T08:17:02.233Z,309.00
2023-04-01T08:18:02.261Z,309.00
2023-04-01T08:19:02.213Z,307.00
2023-04-01T08:20:02.222Z,301.00
2023-04-01T08:21:02.176Z,273.00
2023-04-01T08:22:02.188Z,268.00
2023-04-01T08:23:02.141Z,272.00
2023-04-01T08:24:02.138Z,261.00
2023-04-01T08:25:02.131Z,252.00
2023-04-01T08:26:02.105Z,250.00
2023-04-01T08:27:02.101Z,246.00
2023-04-01T08:28:02.085Z,245.00
2023-04-01T08:29:02.063Z,244.00
2023-04-01T08:30:02.114Z,245.00
2023-04-01T08:31:02.089Z,246.00
2023-04-01T08:32:02.045Z,252.00
2023-04-01T08:33:02.149Z,257.00
2023-04-01T08:34:02.032Z,268.00
2023-04-01T08:35:02.064Z,274.00
2023-04-01T08:36:02.045Z,274.00
2023-04-01T08:37:02.010Z,280.00
2023-04-01T08:38:02.019Z,280.00
2023-04-01T08:39:02.064Z,278.00
2023-04-01T08:40:02.017Z,284.00
2023-04-01T08:41:01.917Z,291.00
2023-04-01T08:42:01.906Z,296.00
2023-04-01T08:43:01.884Z,315.00
2023-04-01T08:44:01.894Z,332.00
2023-04-01T08:45:01.860Z,358.00
2023-04-01T08:46:01.880Z,332.00
2023-04-01T08:47:01.857Z,322.00
2023-04-01T08:48:01.967Z,322.00
2023-04-01T08:49:01.817Z,308.00
2023-04-01T08:50:01.860Z,308.00
2023-04-01T08:51:01.820Z,309.00
2023-04-01T08:52:01.897Z,314.00
2023-04-01T08:53:01.778Z,312.00
2023-04-01T08:54:01.733Z,331.00
2023-04-01T08:55:01.751Z,276.00
2023-04-01T08:56:01.761Z,336.00
2023-04-01T08:57:01.811Z,336.00
2023-04-01T08:58:01.718Z,330.00
2023-04-01T08:59:01.760Z,304.00
2023-04-01T09:00:01.707Z,340.00
2023-04-01T09:01:01.692Z,343.00
2023-04-01T09:02:01.706Z,298.00
2023-04-01T09:03:01.814Z,312.00
2023-04-01T09:04:01.723Z,364.00
2023-04-01T09:05:01.650Z,365.00
2023-04-01T09:06:01.703Z,395.00
2023-04-01T09:07:01.684Z,410.00
2023-04-01T09:08:01.572Z,448.00
2023-04-01T09:09:01.670Z,430.00
2023-04-01T09:10:01.556Z,252.00
2023-04-01T09:11:01.608Z,267.00
2023-04-01T09:12:01.601Z,264.00
2023-04-01T09:13:01.635Z,435.00
2023-04-01T09:14:01.579Z,447.00
2023-04-01T09:15:01.471Z,378.00
2023-04-01T09:16:01.501Z,373.00
2023-04-01T09:17:01.423Z,362.00
2023-04-01T09:18:01.441Z,361.00
2023-04-01T09:19:01.440Z,338.00
2023-04-01T09:20:01.394Z,308.00
2023-04-01T09:21:01.360Z,299.00
2023-04-01T09:22:01.389Z,294.00
2023-04-01T09:23:01.367Z,320.00
2023-04-01T09:24:01.346Z,347.00
2023-04-01T09:25:01.361Z,353.00
2023-04-01T09:26:01.390Z,356.00
2023-04-01T09:27:01.282Z,353.00
2023-04-01T09:28:01.299Z,342.00
2023-04-01T09:29:01.291Z,321.00
2023-04-01T09:30:01.349Z,301.00
2023-04-01T09:31:01.285Z,300.00
2023-04-01T09:32:01.274Z,298.00
2023-04-01T09:33:01.629Z,299.00
2023-04-01T09:34:01.223Z,304.00
2023-04-01T09:35:01.243Z,304.00
2023-04-01T09:36:01.236Z,302.00
2023-04-01T09:37:01.199Z,301.00
2023-04-01T09:38:01.202Z,299.00
2023-04-01T09:39:01.180Z,296.00
2023-04-01T09:40:01.135Z,294.00
2023-04-01T09:41:01.148Z,293.00
2023-04-01T09:42:01.101Z,292.00
2023-04-01T09:43:01.170Z,290.00
2023-04-01T09:44:01.136Z,288.00
2023-04-01T09:45:01.190Z,282.00
2023-04-01T09:46:01.127Z,287.00
2023-04-01T09:47:01.074Z,288.00
2023-04-01T09:48:01.109Z,290.00
2023-04-01T09:49:01.095Z,295.00
2023-04-01T09:50:01.074Z,294.00
2023-04-01T09:51:01.065Z,288.00
2023-04-01T09:52:01.042Z,288.00
2023-04-01T09:53:01.059Z,285.00
2023-04-01T09:54:01.031Z,282.00
2023-04-01T09:55:01.018Z,286.00
2023-04-01T09:56:00.921Z,287.00
2023-04-01T09:57:01.034Z,284.00
2023-04-01T09:58:00.933Z,285.00
2023-04-01T09:59:00.965Z,282.00
2023-04-01T10:00:00.937Z,287.00
2023-04-01T10:01:00.847Z,291.00
2023-04-01T10:02:00.913Z,342.00
2023-04-01T10:03:00.974Z,306.00
2023-04-01T10:04:00.813Z,293.00
2023-04-01T10:05:00.799Z,288.00
2023-04-01T10:06:00.784Z,285.00
2023-04-01T10:07:00.852Z,287.00
2023-04-01T10:08:00.781Z,284.00
2023-04-01T10:09:00.792Z,280.00
2023-04-01T10:10:00.748Z,286.00
2023-04-01T10:11:00.711Z,307.00
2023-04-01T10:12:00.718Z,322.00
2023-04-01T10:13:00.741Z,301.00
2023-04-01T10:14:00.780Z,274.00
2023-04-01T10:15:00.830Z,272.00
2023-04-01T10:16:00.722Z,275.00
2023-04-01T10:17:00.640Z,278.00
2023-04-01T10:18:00.749Z,277.00
2023-04-01T10:19:00.757Z,281.00
2023-04-01T10:20:00.665Z,285.00
2023-04-01T10:21:00.770Z,289.00
2023-04-01T10:22:00.644Z,287.00
2023-04-01T10:23:00.600Z,293.00
2023-04-01T10:24:00.650Z,289.00
2023-04-01T10:25:00.551Z,289.00
2023-04-01T10:26:00.801Z,283.00
2023-04-01T10:27:00.649Z,287.00
2023-04-01T10:28:00.775Z,290.00
2023-04-01T10:29:00.619Z,285.00
2023-04-01T10:30:00.587Z,276.00
2023-04-01T10:31:00.470Z,279.00
2023-04-01T10:32:00.627Z,306.00
2023-04-01T10:33:00.453Z,295.00
2023-04-01T10:34:00.414Z,288.00
2023-04-01T10:35:00.458Z,290.00
2023-04-01T10:36:00.586Z,374.00
2023-04-01T10:37:00.411Z,412.00
2023-04-01T10:38:00.343Z,358.00
2023-04-01T10:39:00.394Z,351.00
2023-04-01T10:40:00.338Z,330.00
2023-04-01T10:41:00.397Z,307.00
2023-04-01T10:42:00.370Z,309.00
2023-04-01T10:43:00.309Z,301.00
2023-04-01T10:44:00.261Z,304.00
2023-04-01T10:45:00.311Z,297.00
2023-04-01T10:46:00.374Z,294.00
2023-04-01T10:47:00.277Z,295.00
2023-04-01T10:48:00.338Z,293.00
2023-04-01T10:49:00.200Z,288.00
2023-04-01T10:50:00.228Z,287.00
2023-04-01T10:51:00.212Z,285.00
2023-04-01T10:52:00.155Z,286.00
2023-04-01T10:53:00.190Z,286.00
2023-04-01T10:54:00.148Z,285.00
2023-04-01T10:55:00.161Z,278.00
2023-04-01T10:56:00.167Z,282.00
2023-04-01T10:57:00.197Z,275.00
2023-04-01T10:58:00.079Z,268.00
2023-04-01T10:59:00.118Z,236.00
2023-04-01T11:00:00.132Z,232.00
2023-04-01T11:01:00.076Z,235.00
2023-04-01T11:02:09.966Z,238.00
2023-04-01T11:03:00.116Z,233.00
2023-04-01T11:04:00.028Z,239.00
2023-04-01T11:04:59.995Z,236.00
2023-04-01T11:05:59.989Z,238.00
2023-04-01T11:06:59.953Z,244.00
2023-04-01T11:08:06.111Z,252.00
2023-04-01T11:08:59.930Z,257.00
2023-04-01T11:09:59.928Z,272.00
2023-04-01T11:10:59.930Z,285.00
2023-04-01T11:11:59.919Z,282.00
2023-04-01T11:12:59.954Z,291.00
2023-04-01T11:13:59.876Z,286.00
2023-04-01T11:14:59.887Z,289.00
2023-04-01T11:15:59.858Z,286.00
2023-04-01T11:16:59.857Z,296.00
2023-04-01T11:17:59.873Z,302.00
2023-04-01T11:18:59.788Z,301.00
2023-04-01T11:19:59.761Z,328.00
2023-04-01T11:20:59.766Z,312.00
2023-04-01T11:21:59.759Z,317.00
2023-04-01T11:22:59.741Z,312.00
2023-04-01T11:24:04.902Z,291.00
2023-04-01T11:24:59.734Z,337.00
2023-04-01T11:25:59.736Z,298.00
2023-04-01T11:26:59.744Z,300.00
2023-04-01T11:27:59.679Z,314.00
2023-04-01T11:28:59.697Z,286.00
2023-04-01T11:30:00.761Z,303.00
2023-04-01T11:30:59.644Z,317.00
2023-04-01T11:31:59.621Z,325.00
2023-04-01T11:32:59.673Z,303.00
2023-04-01T11:33:59.595Z,266.00
2023-04-01T11:34:59.566Z,288.00
2023-04-01T11:35:59.552Z,339.00
2023-04-01T11:36:59.567Z,324.00
2023-04-01T11:37:59.533Z,294.00
2023-04-01T11:38:59.510Z,325.00
2023-04-01T11:39:59.557Z,309.00
2023-04-01T11:40:59.517Z,332.00
2023-04-01T11:41:59.491Z,321.00
2023-04-01T11:42:59.498Z,316.00
2023-04-01T11:43:59.466Z,378.00
2023-04-01T11:44:59.488Z,361.00
2023-04-01T11:45:59.516Z,353.00
2023-04-01T11:46:59.425Z,327.00
2023-04-01T11:47:59.506Z,292.00
2023-04-01T11:48:59.440Z,314.00
2023-04-01T11:49:59.413Z,338.00
2023-04-01T11:50:59.490Z,325.00
2023-04-01T11:51:59.370Z,309.00
2023-04-01T11:52:59.354Z,299.00
2023-04-01T11:53:59.334Z,360.00
2023-04-01T11:54:59.336Z,410.00
2023-04-01T11:55:59.289Z,266.00
2023-04-01T11:56:59.379Z,265.00
2023-04-01T11:57:59.266Z,275.00
2023-04-01T11:58:59.264Z,349.00
2023-04-01T11:59:59.265Z,339.00
2023-04-01T12:00:59.351Z,356.00
2023-04-01T12:01:59.262Z,359.00
2023-04-01T12:02:59.369Z,279.00
2023-04-01T12:03:59.325Z,348.00
2023-04-01T12:04:59.272Z,343.00
2023-04-01T12:05:59.245Z,297.00
2023-04-01T12:06:59.202Z,296.00
2023-04-01T12:07:59.233Z,294.00
2023-04-01T12:08:59.129Z,289.00
2023-04-01T12:09:59.157Z,284.00
2023-04-01T12:10:59.110Z,338.00
2023-04-01T12:11:59.097Z,332.00
2023-04-01T12:13:01.723Z,319.00
2023-04-01T12:13:59.108Z,291.00
2023-04-01T12:14:59.038Z,296.00
2023-04-01T12:15:59.026Z,307.00
2023-04-01T12:16:59.025Z,303.00
2023-04-01T12:17:59.017Z,282.00
2023-04-01T12:18:58.972Z,290.00
2023-04-01T12:19:59.012Z,279.00
2023-04-01T12:20:58.968Z,268.00
2023-04-01T12:21:58.948Z,276.00
2023-04-01T12:22:58.938Z,286.00
2023-04-01T12:23:58.935Z,281.00
2023-04-01T12:24:58.883Z,284.00
2023-04-01T12:25:58.907Z,284.00
2023-04-01T12:26:58.902Z,285.00
2023-04-01T12:27:58.889Z,312.00